createdAt,value
2018-04-14T00:02:15.247Z,95.00
2018-04-14T00:04:43.991Z,94.90
2018-04-14T00:07:12.322Z,94.61
2018-04-14T00:09:40.648Z,94.92
2018-04-14T00:12:09.581Z,94.77
2018-04-14T00:14:37.858Z,94.69
2018-04-14T00:17:06.215Z,94.93
2018-04-14T00:19:35.135Z,95.09
2018-04-14T00:22:04.099Z,95.55
2018-04-14T00:24:33.320Z,95.40
2018-04-14T00:27:01.599Z,95.28
2018-04-14T00:29:29.974Z,95.25
2018-04-14T00:31:58.980Z,95.12
2018-04-14T00:34:27.985Z,95.07
2018-04-14T00:36:57.823Z,95.82
2018-04-14T00:39:26.999Z,95.81
2018-04-14T00:41:56.011Z,95.64
2018-04-14T00:44:24.505Z,95.74
2018-04-14T00:46:54.273Z,95.68
2018-04-14T00:49:22.559Z,95.75
2018-04-14T00:51:51.736Z,95.87
2018-04-14T00:54:20.391Z,95.77
2018-04-14T00:56:49.500Z,95.67
2018-04-14T00:59:18.215Z,95.45
2018-04-14T01:01:46.532Z,95.27
2018-04-14T01:04:15.302Z,95.30
2018-04-14T01:06:45.228Z,95.19
2018-04-14T01:09:13.807Z,94.74
2018-04-14T01:11:42.122Z,94.74
2018-04-14T01:16:43.722Z,95.38
2018-04-14T01:19:12.027Z,95.24
2018-04-14T01:21:40.363Z,95.26
2018-04-14T01:24:08.650Z,95.24
2018-04-14T01:26:36.935Z,95.35
2018-04-14T01:29:06.335Z,95.12
2018-04-14T01:31:34.627Z,95.13
2018-04-14T01:34:02.907Z,95.33
2018-04-14T01:36:31.539Z,95.35
2018-04-14T01:39:00.001Z,95.50
2018-04-14T01:41:28.311Z,95.78
2018-04-14T01:43:57.042Z,95.82
2018-04-14T01:46:25.299Z,95.53
2018-04-14T01:48:53.638Z,95.51
2018-04-14T01:51:21.971Z,95.61
2018-04-14T01:53:50.896Z,95.57
2018-04-14T01:56:19.195Z,95.68
2018-04-14T01:58:47.623Z,95.62
2018-04-14T02:01:15.902Z,95.39
2018-04-14T02:03:45.083Z,95.30
2018-04-14T02:06:13.379Z,95.32
2018-04-14T02:08:41.780Z,95.25
2018-04-14T02:11:10.123Z,95.32
2018-04-14T02:13:38.425Z,95.21
2018-04-14T02:16:06.711Z,95.06
2018-04-14T02:18:35.056Z,95.04
2018-04-14T02:21:03.538Z,95.11
2018-04-14T02:23:31.831Z,95.19
2018-04-14T02:26:00.547Z,95.62
2018-04-14T02:28:28.837Z,95.42
2018-04-14T02:30:57.130Z,95.22
2018-04-14T02:33:25.459Z,96.03
2018-04-14T02:35:53.786Z,96.20
2018-04-14T02:38:22.487Z,95.97
2018-04-14T02:40:50.812Z,95.99
2018-04-14T02:43:19.284Z,96.15
2018-04-14T02:45:47.688Z,96.28
2018-04-14T02:48:15.979Z,96.48
2018-04-14T02:50:44.372Z,96.49
2018-04-14T02:53:12.746Z,96.25
2018-04-14T02:55:41.029Z,96.18
2018-04-14T02:58:09.328Z,96.08
2018-04-14T03:00:37.820Z,95.66
2018-04-14T03:03:06.877Z,95.77
2018-04-14T03:05:35.191Z,95.74
2018-04-14T03:08:03.479Z,95.71
2018-04-14T03:10:32.559Z,95.97
2018-04-14T03:13:01.616Z,96.16
2018-04-14T03:15:29.905Z,96.21
2018-04-14T03:17:58.230Z,96.27
2018-04-14T03:20:26.867Z,96.11
2018-04-14T03:22:55.177Z,95.94
2018-04-14T03:25:23.479Z,96.25
2018-04-14T03:27:52.242Z,96.05
2018-04-14T03:30:20.532Z,96.90
2018-04-14T03:32:48.829Z,97.57
2018-04-14T03:35:17.877Z,97.68
2018-04-14T03:37:46.194Z,97.59
2018-04-14T03:40:14.933Z,97.19
2018-04-14T03:42:44.166Z,97.07
2018-04-14T03:45:12.506Z,96.89
2018-04-14T03:47:40.939Z,96.82
2018-04-14T03:50:09.273Z,96.41
2018-04-14T03:52:37.560Z,96.13
2018-04-14T03:55:06.619Z,96.11
2018-04-14T03:57:35.413Z,96.14
2018-04-14T04:00:03.699Z,96.30
2018-04-14T04:02:31.986Z,96.39
2018-04-14T04:05:00.323Z,96.35
2018-04-14T04:07:28.603Z,96.13
2018-04-14T04:09:56.886Z,95.84
2018-04-14T04:12:25.319Z,96.09
2018-04-14T04:14:53.606Z,96.09
2018-04-14T04:17:22.131Z,95.90
2018-04-14T04:20:08.036Z,95.76
2018-04-14T04:22:54.013Z,95.64
2018-04-14T04:38:50.792Z,96.16
2018-04-14T04:41:19.274Z,97.74
2018-04-14T04:43:47.782Z,98.06
2018-04-14T04:46:16.708Z,98.04
2018-04-14T04:48:45.030Z,97.93
2018-04-14T04:51:13.356Z,97.91
2018-04-14T04:53:42.363Z,97.88
2018-04-14T04:56:10.847Z,97.65
2018-04-14T04:58:39.143Z,97.69
2018-04-14T05:01:08.639Z,97.62
2018-04-14T05:03:36.936Z,97.53
2018-04-14T05:06:05.303Z,97.43
2018-04-14T05:08:33.616Z,97.42
2018-04-14T05:11:01.904Z,97.56
2018-04-14T05:13:30.335Z,97.49
2018-04-14T05:15:58.639Z,97.35
2018-04-14T05:18:26.923Z,97.18
2018-04-14T05:20:55.231Z,97.12
2018-04-14T05:23:23.515Z,96.98
2018-04-14T05:25:52.427Z,96.94
2018-04-14T05:28:20.707Z,96.88
2018-04-14T05:30:49.064Z,96.70
2018-04-14T05:33:17.380Z,96.57
2018-04-14T05:35:46.434Z,96.58
2018-04-14T05:38:14.715Z,97.34
2018-04-14T05:40:43.043Z,98.01
2018-04-14T05:43:11.326Z,99.17
2018-04-14T05:45:39.619Z,99.37
2018-04-14T05:48:07.935Z,98.29
2018-04-14T05:50:36.223Z,98.91
2018-04-14T05:53:04.515Z,98.99
2018-04-14T05:55:33.569Z,98.16
2018-04-14T05:58:01.671Z,96.41
2018-04-14T06:00:29.979Z,95.58
2018-04-14T06:02:58.456Z,94.25
2018-04-14T06:05:26.752Z,93.73
2018-04-14T06:07:55.071Z,93.08
2018-04-14T06:10:23.669Z,91.36
2018-04-14T06:12:52.001Z,89.82
2018-04-14T06:15:20.297Z,88.54
2018-04-14T06:17:48.832Z,86.97
2018-04-14T06:20:17.133Z,85.17
2018-04-14T06:22:45.456Z,85.26
2018-04-14T06:25:13.795Z,82.40
2018-04-14T06:27:42.080Z,80.80
2018-04-14T06:30:10.981Z,81.82
2018-04-14T06:32:39.390Z,78.23
2018-04-14T06:35:07.634Z,77.79
2018-04-14T06:37:35.933Z,73.81
2018-04-14T06:40:04.511Z,70.65
2018-04-14T06:42:32.806Z,68.36
2018-04-14T06:45:01.477Z,66.88
2018-04-14T06:47:29.919Z,64.59
2018-04-14T06:49:58.208Z,61.97
2018-04-14T06:52:27.107Z,63.17
2018-04-14T06:54:55.594Z,60.46
2018-04-14T06:57:24.123Z,58.12
2018-04-14T06:59:52.415Z,57.38
2018-04-14T07:02:20.763Z,58.29
2018-04-14T07:04:49.113Z,53.88
2018-04-14T07:07:18.002Z,52.32
2018-04-14T07:09:46.331Z,51.38
2018-04-14T07:12:15.251Z,50.35
2018-04-14T07:14:43.543Z,50.65
2018-04-14T07:17:11.878Z,48.87
2018-04-14T07:19:40.171Z,45.94
2018-04-14T07:22:08.465Z,47.62
2018-04-14T07:24:37.487Z,46.68
2018-04-14T07:27:05.782Z,47.97
2018-04-14T07:29:34.084Z,44.31
2018-04-14T07:32:02.423Z,44.87
2018-04-14T07:34:30.819Z,49.65
2018-04-14T07:36:59.117Z,47.74
2018-04-14T07:39:28.811Z,45.20
2018-04-14T07:41:57.268Z,41.69
2018-04-14T07:44:25.558Z,44.49
2018-04-14T07:46:53.664Z,40.07
2018-04-14T07:49:21.972Z,36.71
2018-04-14T07:51:50.261Z,40.04
2018-04-14T07:54:18.701Z,36.95
2018-04-14T07:56:47.007Z,41.11
2018-04-14T07:59:15.328Z,38.80
2018-04-14T08:01:44.448Z,38.38
2018-04-14T08:04:12.758Z,37.46
2018-04-14T08:06:41.043Z,36.42
2018-04-14T08:09:09.399Z,35.04
2018-04-14T08:11:37.731Z,33.51
2018-04-14T08:14:05.992Z,33.68
2018-04-14T08:16:34.311Z,30.96
2018-04-14T08:19:02.599Z,31.07
2018-04-14T08:21:30.940Z,30.02
2018-04-14T08:24:00.085Z,28.84
2018-04-14T08:26:28.382Z,30.12
2018-04-14T08:28:56.707Z,31.29
2018-04-14T08:31:25.155Z,33.44
2018-04-14T08:33:53.451Z,31.23
2018-04-14T08:36:23.201Z,29.83
2018-04-14T08:38:51.488Z,30.08
2018-04-14T08:41:19.826Z,30.82
2018-04-14T08:43:48.159Z,29.67
2018-04-14T08:46:16.467Z,28.27
2018-04-14T08:48:45.599Z,27.81
2018-04-14T08:51:13.862Z,27.27
2018-04-14T08:53:42.595Z,25.85
2018-04-14T08:56:10.915Z,25.84
2018-04-14T08:58:39.206Z,25.32
2018-04-14T09:01:07.520Z,26.46
2018-04-14T09:03:35.802Z,25.37
2018-04-14T09:06:04.087Z,24.12
2018-04-14T09:08:33.063Z,23.91
2018-04-14T09:11:01.355Z,22.82
2018-04-14T09:13:29.643Z,22.65
2018-04-14T09:15:58.071Z,22.75
2018-04-14T09:18:27.827Z,22.78
2018-04-14T09:20:56.683Z,20.52
2018-04-14T09:23:24.999Z,21.19
2018-04-14T09:25:53.520Z,23.07
2018-04-14T09:28:21.971Z,22.85
2018-04-14T09:30:51.667Z,23.29
2018-04-14T09:33:19.967Z,21.68
2018-04-14T09:35:48.304Z,20.63
2018-04-14T09:38:16.648Z,19.59
2018-04-14T09:40:44.944Z,18.05
2018-04-14T09:43:13.267Z,17.41
2018-04-14T09:45:41.601Z,18.20
2018-04-14T09:48:09.883Z,18.39
2018-04-14T09:50:38.170Z,19.18
2018-04-14T09:53:06.478Z,20.05
2018-04-14T09:55:34.755Z,22.77
2018-04-14T09:58:03.031Z,22.09
2018-04-14T10:00:32.123Z,19.49
2018-04-14T10:03:00.450Z,17.66
2018-04-14T10:05:29.512Z,17.33
2018-04-14T10:07:59.223Z,17.01
2018-04-14T10:10:28.338Z,18.22
2018-04-14T10:12:56.563Z,18.56
2018-04-14T10:15:24.959Z,18.75
2018-04-14T10:17:53.243Z,18.36
2018-04-14T10:20:21.858Z,17.69
2018-04-14T10:22:50.615Z,20.55
2018-04-14T10:25:18.904Z,20.33
2018-04-14T10:27:47.657Z,18.97
2018-04-14T10:30:16.156Z,18.71
2018-04-14T10:32:44.226Z,17.47
2018-04-14T10:35:12.544Z,19.92
2018-04-14T10:37:40.891Z,21.19
2018-04-14T10:40:09.159Z,22.25
2018-04-14T10:42:37.482Z,21.54
2018-04-14T10:45:05.771Z,20.96
2018-04-14T10:47:34.098Z,21.53
2018-04-14T10:50:03.183Z,21.67
2018-04-14T10:52:31.434Z,18.04
2018-04-14T10:54:59.734Z,19.50
2018-04-14T10:57:28.106Z,20.36
2018-04-14T10:59:56.427Z,21.26
2018-04-14T11:02:24.745Z,21.95
2018-04-14T11:04:53.039Z,20.31
2018-04-14T11:07:21.131Z,20.81
2018-04-14T11:09:50.188Z,19.92
2018-04-14T11:12:18.466Z,20.90
2018-04-14T11:14:47.031Z,19.60
2018-04-14T11:17:15.731Z,19.59
2018-04-14T11:19:44.015Z,19.34
2018-04-14T11:22:12.339Z,16.70
2018-04-14T11:24:40.627Z,15.52
2018-04-14T11:27:08.922Z,16.43
2018-04-14T11:29:37.238Z,17.53
2018-04-14T11:32:05.514Z,16.86
2018-04-14T11:34:33.795Z,14.42
2018-04-14T11:37:02.111Z,13.16
2018-04-14T11:39:30.391Z,14.02
2018-04-14T11:41:58.726Z,12.15
2018-04-14T11:44:27.024Z,12.92
2018-04-14T11:46:55.311Z,11.58
2018-04-14T11:49:23.637Z,11.02
2018-04-14T11:51:51.916Z,13.93
2018-04-14T11:54:20.206Z,16.89
2018-04-14T11:56:48.975Z,16.47
2018-04-14T11:59:17.847Z,14.86
2018-04-14T12:01:46.135Z,14.07
2018-04-14T12:04:14.766Z,13.54
2018-04-14T12:06:43.055Z,14.70
2018-04-14T12:09:11.464Z,14.01
2018-04-14T12:11:39.571Z,13.88
2018-04-14T12:14:07.852Z,14.05
2018-04-14T12:16:36.238Z,12.35
2018-04-14T12:19:04.604Z,14.23
2018-04-14T12:21:32.895Z,14.05
2018-04-14T12:24:01.761Z,13.53
2018-04-14T12:26:29.866Z,17.31
2018-04-14T12:28:58.219Z,15.76
2018-04-14T12:31:26.551Z,14.08
2018-04-14T12:33:55.436Z,15.22
2018-04-14T12:36:23.725Z,16.17
2018-04-14T12:38:52.191Z,15.50
2018-04-14T12:41:20.605Z,19.91
2018-04-14T12:43:50.200Z,20.15
2018-04-14T12:46:18.602Z,20.49
2018-04-14T12:48:46.891Z,20.46
2018-04-14T12:51:15.174Z,21.30
2018-04-14T12:53:43.503Z,22.16
2018-04-14T12:56:11.791Z,23.00
2018-04-14T12:58:40.819Z,22.56
2018-04-14T13:01:09.304Z,22.14
2018-04-14T13:03:37.593Z,21.43
2018-04-14T13:06:06.619Z,21.79
2018-04-14T13:08:35.343Z,20.39
2018-04-14T13:11:03.627Z,18.84
2018-04-14T13:13:32.063Z,17.64
2018-04-14T13:16:00.346Z,14.77
2018-04-14T13:18:28.663Z,12.79
2018-04-14T13:20:57.008Z,13.98
2018-04-14T13:23:25.295Z,14.47
2018-04-14T13:25:53.588Z,15.12
2018-04-14T13:28:22.627Z,12.81
2018-04-14T13:30:51.610Z,13.91
2018-04-14T13:33:19.982Z,13.40
2018-04-14T13:35:49.051Z,12.53
2018-04-14T13:38:18.152Z,10.97
2018-04-14T13:40:46.486Z,10.94
2018-04-14T13:43:14.766Z,11.91
2018-04-14T13:45:43.049Z,12.54
2018-04-14T13:48:11.420Z,12.86
2018-04-14T13:50:39.716Z,15.29
2018-04-14T13:53:08.415Z,19.38
2018-04-14T13:55:38.468Z,17.59
2018-04-14T13:58:07.058Z,18.95
2018-04-14T14:00:35.446Z,21.21
2018-04-14T14:03:04.844Z,19.42
2018-04-14T14:05:33.143Z,18.45
2018-04-14T14:08:01.591Z,17.27
2018-04-14T14:10:29.875Z,16.16
2018-04-14T14:12:58.283Z,17.42
2018-04-14T14:15:26.655Z,15.77
2018-04-14T14:17:54.895Z,16.57
2018-04-14T14:20:23.776Z,16.52
2018-04-14T14:22:52.119Z,18.40
2018-04-14T14:25:20.406Z,20.25
2018-04-14T14:27:49.467Z,21.27
2018-04-14T14:30:18.543Z,21.65
2018-04-14T14:32:46.759Z,21.75
2018-04-14T14:35:15.364Z,20.30
2018-04-14T14:37:43.741Z,20.96
2018-04-14T14:40:12.018Z,21.99
2018-04-14T14:42:40.851Z,20.57
2018-04-14T14:45:09.187Z,20.27
2018-04-14T14:47:38.231Z,21.25
2018-04-14T14:50:12.028Z,21.29
2018-04-14T14:52:40.311Z,21.65
2018-04-14T14:55:09.082Z,23.96
2018-04-14T14:57:37.415Z,23.43
2018-04-14T15:00:05.702Z,26.24
2018-04-14T15:02:33.986Z,27.05
2018-04-14T15:05:02.516Z,25.33
2018-04-14T15:07:31.446Z,24.97
2018-04-14T15:10:00.250Z,23.35
2018-04-14T15:12:28.598Z,21.72
2018-04-14T15:14:56.891Z,19.55
2018-04-14T15:17:25.180Z,20.71
2018-04-14T15:19:53.515Z,20.82
2018-04-14T15:22:21.800Z,22.01
2018-04-14T15:24:50.089Z,24.65
2018-04-14T15:27:18.411Z,25.12
2018-04-14T15:29:46.687Z,27.43
2018-04-14T15:32:15.095Z,28.59
2018-04-14T15:34:43.435Z,29.03
2018-04-14T15:37:12.019Z,26.24
2018-04-14T15:39:40.319Z,25.66
2018-04-14T15:42:08.666Z,25.01
2018-04-14T15:44:36.956Z,24.90
2018-04-14T15:47:05.248Z,23.85
2018-04-14T15:49:33.607Z,25.02
2018-04-14T15:52:02.598Z,27.36
2018-04-14T15:54:31.084Z,28.57
2018-04-14T15:56:59.450Z,30.28
2018-04-14T15:59:27.742Z,29.94
2018-04-14T16:01:56.139Z,31.06
2018-04-14T16:04:24.480Z,32.04
2018-04-14T16:06:52.770Z,32.32
2018-04-14T16:09:21.078Z,32.68
2018-04-14T16:11:49.407Z,32.38
2018-04-14T16:14:17.686Z,33.43
2018-04-14T16:16:45.974Z,33.27
2018-04-14T16:19:14.319Z,32.46
2018-04-14T16:21:42.610Z,33.17
2018-04-14T16:24:11.011Z,33.38
2018-04-14T16:26:39.343Z,33.90
2018-04-14T16:29:07.626Z,34.37
2018-04-14T16:31:35.911Z,33.71
2018-04-14T16:34:04.248Z,33.75
2018-04-14T16:36:32.910Z,33.57
2018-04-14T16:39:01.207Z,33.50
2018-04-14T16:41:29.555Z,33.67
2018-04-14T16:43:57.839Z,32.71
2018-04-14T16:46:26.128Z,33.13
2018-04-14T16:48:54.472Z,34.32
2018-04-14T16:51:22.776Z,35.19
2018-04-14T16:53:51.100Z,34.47
2018-04-14T16:56:19.426Z,34.90
2018-04-14T16:58:47.934Z,34.79
2018-04-14T17:01:17.022Z,35.23
2018-04-14T17:03:45.315Z,34.48
2018-04-14T17:06:14.375Z,33.80
2018-04-14T17:08:42.708Z,35.84
2018-04-14T17:11:10.995Z,35.86
2018-04-14T17:13:39.283Z,36.40
2018-04-14T17:16:07.689Z,36.77
2018-04-14T17:18:36.376Z,36.39
2018-04-14T17:21:04.663Z,37.71
2018-04-14T17:23:32.995Z,37.87
2018-04-14T17:26:01.274Z,38.40
2018-04-14T17:28:29.554Z,39.00
2018-04-14T17:30:57.880Z,38.91
2018-04-14T17:33:26.172Z,37.98
2018-04-14T17:35:54.459Z,39.17
2018-04-14T17:38:23.303Z,40.18
2018-04-14T17:40:51.587Z,39.79
2018-04-14T17:43:19.867Z,39.16
2018-04-14T17:45:48.274Z,39.64
2018-04-14T17:48:16.567Z,39.84
2018-04-14T17:50:45.385Z,40.21
2018-04-14T17:53:13.723Z,40.41
2018-04-14T17:55:42.783Z,40.59
2018-04-14T17:58:11.063Z,40.54
2018-04-14T18:00:39.727Z,41.10
2018-04-14T18:03:08.289Z,41.82
2018-04-14T18:05:36.575Z,43.56
2018-04-14T18:08:04.927Z,43.72
2018-04-14T18:10:33.243Z,44.88
2018-04-14T18:13:01.667Z,44.83
2018-04-14T18:15:30.767Z,45.56
2018-04-14T18:17:59.055Z,46.13
2018-04-14T18:20:27.343Z,46.70
2018-04-14T18:22:55.767Z,46.59
2018-04-14T18:25:24.311Z,47.54
2018-04-14T18:27:52.915Z,48.36
2018-04-14T18:30:21.233Z,48.76
2018-04-14T18:32:49.519Z,49.47
2018-04-14T18:35:17.849Z,49.81
2018-04-14T18:37:46.206Z,50.41
2018-04-14T18:40:14.526Z,50.50
2018-04-14T18:42:42.814Z,49.54
2018-04-14T18:45:11.149Z,50.58
2018-04-14T18:47:39.779Z,50.16
2018-04-14T18:50:08.067Z,52.24
2018-04-14T18:52:36.375Z,51.49
2018-04-14T18:55:04.711Z,51.70
2018-04-14T18:57:33.002Z,51.33
2018-04-14T19:00:02.104Z,51.24
2018-04-14T19:02:30.991Z,52.31
2018-04-14T19:04:59.301Z,52.42
2018-04-14T19:07:27.908Z,53.35
2018-04-14T19:09:56.492Z,54.10
2018-04-14T19:12:24.796Z,54.40
2018-04-14T19:14:53.127Z,53.80
2018-04-14T19:17:21.752Z,54.14
2018-04-14T19:19:50.039Z,55.28
2018-04-14T19:22:18.368Z,55.37
2018-04-14T19:24:46.659Z,55.43
2018-04-14T19:27:14.955Z,55.89
2018-04-14T19:29:43.443Z,55.72
2018-04-14T19:32:11.739Z,56.05
2018-04-14T19:34:41.355Z,56.55
2018-04-14T19:37:09.739Z,55.82
2018-04-14T19:39:38.027Z,56.46
2018-04-14T19:42:06.763Z,57.04
2018-04-14T19:44:35.482Z,57.19
2018-04-14T19:47:04.852Z,57.33
2018-04-14T19:49:34.108Z,57.42
2018-04-14T19:52:02.623Z,56.82
2018-04-14T19:54:31.092Z,57.92
2018-04-14T19:56:59.330Z,59.33
2018-04-14T19:59:27.616Z,60.24
2018-04-14T20:01:56.620Z,59.70
2018-04-14T20:04:26.433Z,59.93
2018-04-14T20:06:55.408Z,59.55
2018-04-14T20:09:24.575Z,59.68
2018-04-14T20:11:53.172Z,59.55
2018-04-14T20:14:21.482Z,59.58
2018-04-14T20:16:51.028Z,60.58
2018-04-14T20:19:20.035Z,60.75
2018-04-14T20:21:48.323Z,61.67
2018-04-14T20:24:16.639Z,61.36
2018-04-14T20:26:45.007Z,61.33
2018-04-14T20:29:13.300Z,61.59
2018-04-14T20:31:41.731Z,61.84
2018-04-14T20:34:10.028Z,62.32
2018-04-14T20:36:39.035Z,64.14
2018-04-14T20:39:07.341Z,64.39
2018-04-14T20:41:36.488Z,64.47
2018-04-14T20:44:05.585Z,64.99
2018-04-14T20:46:33.914Z,66.09
2018-04-14T20:49:02.221Z,65.97
2018-04-14T20:51:30.524Z,66.22
2018-04-14T20:54:00.151Z,66.29
2018-04-14T20:56:28.441Z,65.56
2018-04-14T20:58:56.763Z,65.04
2018-04-14T21:01:25.104Z,65.02
2018-04-14T21:03:53.392Z,65.46
2018-04-14T21:06:21.683Z,66.79
2018-04-14T21:08:49.998Z,68.21
2018-04-14T21:11:18.287Z,68.18
2018-04-14T21:13:46.617Z,68.04
2018-04-14T21:16:14.906Z,68.00
2018-04-14T21:18:43.365Z,67.84
2018-04-14T21:21:11.703Z,68.80
2018-04-14T21:23:39.999Z,69.44
2018-04-14T21:26:08.296Z,69.43
2018-04-14T21:28:36.639Z,68.76
2018-04-14T21:31:05.170Z,68.62
2018-04-14T21:33:33.598Z,68.84
2018-04-14T21:36:01.956Z,69.75
2018-04-14T21:38:31.415Z,69.76
2018-04-14T21:41:00.503Z,69.67
2018-04-14T21:43:29.728Z,69.80
2018-04-14T21:45:58.822Z,70.37
2018-04-14T21:48:27.253Z,70.72
2018-04-14T21:50:56.439Z,71.34
2018-04-14T21:53:25.671Z,71.78
2018-04-14T21:55:55.574Z,71.94
2018-04-14T21:58:25.255Z,70.80
2018-04-14T22:00:54.587Z,70.72
2018-04-14T22:03:23.792Z,70.91
2018-04-14T22:05:52.098Z,71.31
2018-04-14T22:08:20.404Z,72.50
2018-04-14T22:10:49.507Z,73.69
2018-04-14T22:13:18.601Z,74.60
2018-04-14T22:15:47.652Z,75.11
2018-04-14T22:18:15.979Z,74.83
2018-04-14T22:20:45.027Z,74.11
2018-04-14T22:23:13.312Z,75.63
2018-04-14T22:25:41.636Z,75.02
2018-04-14T22:28:09.921Z,75.88
2018-04-14T22:30:38.587Z,75.86
2018-04-14T22:33:07.667Z,74.34
2018-04-14T22:35:36.004Z,73.72
2018-04-14T22:38:04.306Z,76.22
2018-04-14T22:40:32.743Z,78.32
2018-04-14T22:43:01.298Z,78.67
2018-04-14T22:45:30.156Z,79.40
2018-04-14T22:47:58.941Z,77.98
2018-04-14T22:50:27.233Z,76.75
2018-04-14T22:52:56.090Z,76.32
2018-04-14T22:55:24.408Z,76.60
2018-04-14T22:57:52.734Z,76.09
2018-04-14T23:00:21.065Z,75.74
2018-04-14T23:02:49.351Z,77.12
2018-04-14T23:05:17.651Z,77.74
2018-04-14T23:07:45.979Z,77.95
2018-04-14T23:10:14.506Z,78.33
2018-04-14T23:12:42.847Z,78.19
2018-04-14T23:15:11.134Z,77.58
2018-04-14T23:17:39.410Z,77.02
2018-04-14T23:20:08.523Z,77.14
2018-04-14T23:22:36.814Z,77.57
2018-04-14T23:25:06.272Z,78.79
2018-04-14T23:27:34.612Z,79.16
2018-04-14T23:30:03.039Z,80.28
2018-04-14T23:32:31.911Z,80.01
2018-04-14T23:35:00.260Z,79.90
2018-04-14T23:37:28.564Z,80.22
2018-04-14T23:39:56.859Z,81.20
2018-04-14T23:42:25.272Z,81.87
2018-04-14T23:44:53.822Z,82.33
2018-04-14T23:47:22.105Z,82.42
2018-04-14T23:49:50.442Z,83.61
2018-04-14T23:52:18.732Z,84.31
2018-04-14T23:54:47.019Z,85.01
2018-04-14T23:57:15.342Z,84.67
2018-04-14T23:59:43.658Z,83.85
